sensor_id;sensor_type;location;lat;lon;timestamp;P1;durP1;ratioP1;P2;durP2;ratioP2
40555;SDS011;26250;45.422;11.100;2023-02-11T00:01:12;13.27;;;7.43;;
40555;SDS011;26250;45.422;11.100;2023-02-11T00:03:46;14.07;;;8.27;;
40555;SDS011;26250;45.422;11.100;2023-02-11T00:06:13;10.95;;;8.68;;
40555;SDS011;26250;45.422;11.100;2023-02-11T00:08:40;11.15;;;10.05;;
40555;SDS011;26250;45.422;11.100;2023-02-11T00:11:08;8.57;;;7.78;;
40555;SDS011;26250;45.422;11.100;2023-02-11T00:13:41;9.90;;;8.48;;
40555;SDS011;26250;45.422;11.100;2023-02-11T00:16:10;14.90;;;9.10;;
40555;SDS011;26250;45.422;11.100;2023-02-11T00:18:39;19.38;;;10.55;;
40555;SDS011;26250;45.422;11.100;2023-02-11T00:21:10;10.43;;;7.55;;
40555;SDS011;26250;45.422;11.100;2023-02-11T00:23:38;22.55;;;11.35;;
40555;SDS011;26250;45.422;11.100;2023-02-11T00:29:02;13.93;;;9.10;;
40555;SDS011;26250;45.422;11.100;2023-02-11T00:31:30;9.88;;;8.68;;
40555;SDS011;26250;45.422;11.100;2023-02-11T00:33:58;11.25;;;9.48;;
40555;SDS011;26250;45.422;11.100;2023-02-11T00:36:25;18.02;;;10.15;;
40555;SDS011;26250;45.422;11.100;2023-02-11T00:38:54;10.35;;;9.32;;
40555;SDS011;26250;45.422;11.100;2023-02-11T00:41:22;14.88;;;8.60;;
40555;SDS011;26250;45.422;11.100;2023-02-11T00:43:49;15.07;;;9.40;;
40555;SDS011;26250;45.422;11.100;2023-02-11T00:46:17;14.45;;;11.63;;
40555;SDS011;26250;45.422;11.100;2023-02-11T00:48:44;15.05;;;12.13;;
40555;SDS011;26250;45.422;11.100;2023-02-11T00:51:14;13.48;;;11.63;;
40555;SDS011;26250;45.422;11.100;2023-02-11T00:53:41;14.35;;;12.07;;
40555;SDS011;26250;45.422;11.100;2023-02-11T00:56:08;15.32;;;11.73;;
40555;SDS011;26250;45.422;11.100;2023-02-11T00:58:35;18.60;;;12.70;;
40555;SDS011;26250;45.422;11.100;2023-02-11T01:01:03;18.00;;;9.70;;
40555;SDS011;26250;45.422;11.100;2023-02-11T01:03:30;11.85;;;10.48;;
40555;SDS011;26250;45.422;11.100;2023-02-11T01:05:57;11.30;;;9.32;;
40555;SDS011;26250;45.422;11.100;2023-02-11T01:08:24;11.48;;;10.05;;
40555;SDS011;26250;45.422;11.100;2023-02-11T01:10:57;12.70;;;10.07;;
40555;SDS011;26250;45.422;11.100;2023-02-11T01:13:26;19.77;;;12.38;;
40555;SDS011;26250;45.422;11.100;2023-02-11T01:15:54;17.52;;;11.70;;
40555;SDS011;26250;45.422;11.100;2023-02-11T01:18:22;16.38;;;11.75;;
40555;SDS011;26250;45.422;11.100;2023-02-11T01:20:50;13.77;;;10.60;;
40555;SDS011;26250;45.422;11.100;2023-02-11T01:23:18;14.05;;;11.40;;
40555;SDS011;26250;45.422;11.100;2023-02-11T01:25:45;24.48;;;14.10;;
40555;SDS011;26250;45.422;11.100;2023-02-11T01:28:18;16.30;;;13.32;;
40555;SDS011;26250;45.422;11.100;2023-02-11T01:30:51;22.33;;;13.50;;
40555;SDS011;26250;45.422;11.100;2023-02-11T01:33:18;17.88;;;12.73;;
40555;SDS011;26250;45.422;11.100;2023-02-11T01:35:46;12.52;;;11.10;;
40555;SDS011;26250;45.422;11.100;2023-02-11T01:38:15;23.55;;;11.52;;
40555;SDS011;26250;45.422;11.100;2023-02-11T01:40:55;12.20;;;9.98;;
40555;SDS011;26250;45.422;11.100;2023-02-11T01:43:49;15.93;;;9.88;;
40555;SDS011;26250;45.422;11.100;2023-02-11T01:49:01;19.58;;;10.63;;
40555;SDS011;26250;45.422;11.100;2023-02-11T01:51:36;13.95;;;11.23;;
40555;SDS011;26250;45.422;11.100;2023-02-11T01:54:07;13.65;;;10.60;;
40555;SDS011;26250;45.422;11.100;2023-02-11T01:56:56;11.63;;;10.43;;
40555;SDS011;26250;45.422;11.100;2023-02-11T02:02:20;16.45;;;9.20;;
40555;SDS011;26250;45.422;11.100;2023-02-11T02:04:52;11.80;;;9.85;;
40555;SDS011;26250;45.422;11.100;2023-02-11T02:07:28;12.15;;;10.77;;
40555;SDS011;26250;45.422;11.100;2023-02-11T02:10:03;12.45;;;11.07;;
40555;SDS011;26250;45.422;11.100;2023-02-11T02:12:36;15.30;;;10.60;;
40555;SDS011;26250;45.422;11.100;2023-02-11T02:17:58;12.57;;;9.80;;
40555;SDS011;26250;45.422;11.100;2023-02-11T02:20:50;13.48;;;11.18;;
40555;SDS011;26250;45.422;11.100;2023-02-11T02:29:41;15.10;;;10.85;;
40555;SDS011;26250;45.422;11.100;2023-02-11T02:34:50;17.95;;;11.15;;
40555;SDS011;26250;45.422;11.100;2023-02-11T02:37:26;17.77;;;10.73;;
40555;SDS011;26250;45.422;11.100;2023-02-11T02:40:02;13.95;;;10.85;;
40555;SDS011;26250;45.422;11.100;2023-02-11T02:42:35;13.35;;;12.02;;
40555;SDS011;26250;45.422;11.100;2023-02-11T02:45:03;11.73;;;10.48;;
40555;SDS011;26250;45.422;11.100;2023-02-11T02:47:32;16.90;;;12.65;;
40555;SDS011;26250;45.422;11.100;2023-02-11T02:49:58;12.57;;;11.30;;
40555;SDS011;26250;45.422;11.100;2023-02-11T03:03:57;17.02;;;10.80;;
40555;SDS011;26250;45.422;11.100;2023-02-11T03:09:39;22.27;;;16.70;;
40555;SDS011;26250;45.422;11.100;2023-02-11T03:12:12;23.90;;;15.10;;
40555;SDS011;26250;45.422;11.100;2023-02-11T03:14:41;28.35;;;15.73;;
40555;SDS011;26250;45.422;11.100;2023-02-11T03:17:08;23.27;;;14.82;;
40555;SDS011;26250;45.422;11.100;2023-02-11T03:19:40;24.25;;;16.95;;
40555;SDS011;26250;45.422;11.100;2023-02-11T03:22:56;19.85;;;13.30;;
40555;SDS011;26250;45.422;11.100;2023-02-11T03:25:06;18.38;;;12.70;;
40555;SDS011;26250;45.422;11.100;2023-02-11T03:30:26;19.23;;;15.18;;
40555;SDS011;26250;45.422;11.100;2023-02-11T03:33:06;18.50;;;13.35;;
40555;SDS011;26250;45.422;11.100;2023-02-11T03:35:42;20.27;;;14.30;;
40555;SDS011;26250;45.422;11.100;2023-02-11T03:38:20;16.83;;;13.90;;
40555;SDS011;26250;45.422;11.100;2023-02-11T03:40:58;23.52;;;15.45;;
40555;SDS011;26250;45.422;11.100;2023-02-11T03:43:29;20.52;;;15.93;;
40555;SDS011;26250;45.422;11.100;2023-02-11T03:46:02;20.67;;;16.55;;
40555;SDS011;26250;45.422;11.100;2023-02-11T03:48:32;25.42;;;17.85;;
40555;SDS011;26250;45.422;11.100;2023-02-11T03:51:04;24.30;;;17.52;;
40555;SDS011;26250;45.422;11.100;2023-02-11T03:53:34;29.50;;;18.43;;
40555;SDS011;26250;45.422;11.100;2023-02-11T03:56:04;19.95;;;15.52;;
40555;SDS011;26250;45.422;11.100;2023-02-11T03:58:34;13.88;;;12.52;;
40555;SDS011;26250;45.422;11.100;2023-02-11T04:01:01;30.65;;;18.10;;
40555;SDS011;26250;45.422;11.100;2023-02-11T04:03:30;32.85;;;18.65;;
40555;SDS011;26250;45.422;11.100;2023-02-11T04:05:58;26.92;;;17.02;;
40555;SDS011;26250;45.422;11.100;2023-02-11T04:08:25;22.50;;;18.65;;
40555;SDS011;26250;45.422;11.100;2023-02-11T04:10:51;25.73;;;16.77;;
40555;SDS011;26250;45.422;11.100;2023-02-11T04:13:21;26.48;;;17.33;;
40555;SDS011;26250;45.422;11.100;2023-02-11T04:15:49;29.63;;;18.90;;
40555;SDS011;26250;45.422;11.100;2023-02-11T04:18:16;26.17;;;16.48;;
40555;SDS011;26250;45.422;11.100;2023-02-11T04:20:43;25.05;;;16.73;;
40555;SDS011;26250;45.422;11.100;2023-02-11T04:23:10;19.35;;;14.82;;
40555;SDS011;26250;45.422;11.100;2023-02-11T04:25:36;20.50;;;15.57;;
40555;SDS011;26250;45.422;11.100;2023-02-11T04:28:03;29.52;;;18.42;;
40555;SDS011;26250;45.422;11.100;2023-02-11T04:30:30;26.25;;;18.98;;
40555;SDS011;26250;45.422;11.100;2023-02-11T04:32:57;25.67;;;21.98;;
40555;SDS011;26250;45.422;11.100;2023-02-11T04:35:24;31.00;;;20.65;;
40555;SDS011;26250;45.422;11.100;2023-02-11T04:37:51;28.63;;;20.23;;
40555;SDS011;26250;45.422;11.100;2023-02-11T04:40:18;237.40;;;48.33;;
40555;SDS011;26250;45.422;11.100;2023-02-11T04:42:44;85.75;;;29.33;;
40555;SDS011;26250;45.422;11.100;2023-02-11T04:45:14;455.15;;;86.28;;
40555;SDS011;26250;45.422;11.100;2023-02-11T04:47:41;132.50;;;38.00;;
40555;SDS011;26250;45.422;11.100;2023-02-11T04:50:07;296.70;;;58.05;;
40555;SDS011;26250;45.422;11.100;2023-02-11T04:52:34;112.70;;;33.38;;
40555;SDS011;26250;45.422;11.100;2023-02-11T04:55:01;45.03;;;23.02;;
40555;SDS011;26250;45.422;11.100;2023-02-11T04:57:28;66.43;;;22.80;;
40555;SDS011;26250;45.422;11.100;2023-02-11T04:59:55;23.98;;;18.25;;
40555;SDS011;26250;45.422;11.100;2023-02-11T05:02:25;27.40;;;19.27;;
40555;SDS011;26250;45.422;11.100;2023-02-11T05:04:52;24.58;;;18.65;;
40555;SDS011;26250;45.422;11.100;2023-02-11T05:07:18;22.98;;;17.45;;
40555;SDS011;26250;45.422;11.100;2023-02-11T05:09:48;21.75;;;16.40;;
40555;SDS011;26250;45.422;11.100;2023-02-11T05:12:14;33.95;;;18.13;;
40555;SDS011;26250;45.422;11.100;2023-02-11T05:14:41;90.57;;;26.00;;
40555;SDS011;26250;45.422;11.100;2023-02-11T05:17:08;17.83;;;14.38;;
40555;SDS011;26250;45.422;11.100;2023-02-11T05:19:36;19.42;;;15.85;;
40555;SDS011;26250;45.422;11.100;2023-02-11T05:22:03;23.33;;;14.90;;
40555;SDS011;26250;45.422;11.100;2023-02-11T05:24:30;29.63;;;15.90;;
40555;SDS011;26250;45.422;11.100;2023-02-11T05:26:57;23.35;;;14.52;;
40555;SDS011;26250;45.422;11.100;2023-02-11T05:29:24;18.88;;;14.68;;
40555;SDS011;26250;45.422;11.100;2023-02-11T05:31:51;29.27;;;15.68;;
40555;SDS011;26250;45.422;11.100;2023-02-11T05:34:18;17.92;;;14.68;;
40555;SDS011;26250;45.422;11.100;2023-02-11T05:36:45;24.88;;;16.02;;
40555;SDS011;26250;45.422;11.100;2023-02-11T05:39:12;28.67;;;15.77;;
40555;SDS011;26250;45.422;11.100;2023-02-11T05:41:39;23.70;;;13.95;;
40555;SDS011;26250;45.422;11.100;2023-02-11T05:44:06;22.45;;;15.45;;
40555;SDS011;26250;45.422;11.100;2023-02-11T05:46:32;42.55;;;16.85;;
40555;SDS011;26250;45.422;11.100;2023-02-11T05:48:59;37.78;;;15.95;;
40555;SDS011;26250;45.422;11.100;2023-02-11T05:51:26;40.75;;;17.75;;
40555;SDS011;26250;45.422;11.100;2023-02-11T05:53:53;19.85;;;14.85;;
40555;SDS011;26250;45.422;11.100;2023-02-11T05:56:22;25.05;;;15.63;;
40555;SDS011;26250;45.422;11.100;2023-02-11T05:58:49;25.27;;;15.18;;
40555;SDS011;26250;45.422;11.100;2023-02-11T06:01:16;31.38;;;16.42;;
40555;SDS011;26250;45.422;11.100;2023-02-11T06:03:43;25.33;;;15.55;;
40555;SDS011;26250;45.422;11.100;2023-02-11T06:06:10;18.40;;;15.00;;
40555;SDS011;26250;45.422;11.100;2023-02-11T06:08:38;20.23;;;16.50;;
40555;SDS011;26250;45.422;11.100;2023-02-11T06:11:06;28.75;;;16.27;;
40555;SDS011;26250;45.422;11.100;2023-02-11T06:13:33;24.63;;;15.02;;
40555;SDS011;26250;45.422;11.100;2023-02-11T06:16:01;26.58;;;15.82;;
40555;SDS011;26250;45.422;11.100;2023-02-11T06:18:28;26.90;;;14.02;;
40555;SDS011;26250;45.422;11.100;2023-02-11T06:20:55;27.00;;;16.00;;
40555;SDS011;26250;45.422;11.100;2023-02-11T06:23:22;22.13;;;15.50;;
40555;SDS011;26250;45.422;11.100;2023-02-11T06:25:49;23.48;;;15.95;;
40555;SDS011;26250;45.422;11.100;2023-02-11T06:28:18;38.88;;;18.25;;
40555;SDS011;26250;45.422;11.100;2023-02-11T06:30:45;48.85;;;20.88;;
40555;SDS011;26250;45.422;11.100;2023-02-11T06:33:11;53.25;;;18.70;;
40555;SDS011;26250;45.422;11.100;2023-02-11T06:35:41;70.13;;;20.98;;
40555;SDS011;26250;45.422;11.100;2023-02-11T06:38:08;73.97;;;21.00;;
40555;SDS011;26250;45.422;11.100;2023-02-11T06:40:35;90.97;;;24.50;;
40555;SDS011;26250;45.422;11.100;2023-02-11T06:43:02;111.93;;;23.42;;
40555;SDS011;26250;45.422;11.100;2023-02-11T06:45:29;59.85;;;20.35;;
40555;SDS011;26250;45.422;11.100;2023-02-11T06:47:55;78.07;;;21.02;;
40555;SDS011;26250;45.422;11.100;2023-02-11T06:50:24;65.72;;;21.05;;
40555;SDS011;26250;45.422;11.100;2023-02-11T06:52:51;93.68;;;22.55;;
40555;SDS011;26250;45.422;11.100;2023-02-11T06:55:17;64.38;;;18.15;;
40555;SDS011;26250;45.422;11.100;2023-02-11T06:57:44;168.65;;;28.50;;
40555;SDS011;26250;45.422;11.100;2023-02-11T07:00:11;166.10;;;30.98;;
40555;SDS011;26250;45.422;11.100;2023-02-11T07:02:39;381.00;;;57.67;;
40555;SDS011;26250;45.422;11.100;2023-02-11T07:05:06;260.50;;;45.92;;
40555;SDS011;26250;45.422;11.100;2023-02-11T07:07:36;177.43;;;36.70;;
40555;SDS011;26250;45.422;11.100;2023-02-11T07:10:03;142.30;;;32.83;;
40555;SDS011;26250;45.422;11.100;2023-02-11T07:12:31;102.57;;;27.73;;
40555;SDS011;26250;45.422;11.100;2023-02-11T07:14:57;79.15;;;21.60;;
40555;SDS011;26250;45.422;11.100;2023-02-11T07:17:24;62.05;;;17.50;;
40555;SDS011;26250;45.422;11.100;2023-02-11T07:19:51;27.05;;;14.40;;
40555;SDS011;26250;45.422;11.100;2023-02-11T07:22:18;29.83;;;14.27;;
40555;SDS011;26250;45.422;11.100;2023-02-11T07:24:45;24.25;;;13.75;;
40555;SDS011;26250;45.422;11.100;2023-02-11T07:27:12;15.90;;;13.60;;
40555;SDS011;26250;45.422;11.100;2023-02-11T07:29:40;21.02;;;12.82;;
40555;SDS011;26250;45.422;11.100;2023-02-11T07:32:07;24.63;;;12.35;;
40555;SDS011;26250;45.422;11.100;2023-02-11T07:34:34;19.77;;;12.98;;
40555;SDS011;26250;45.422;11.100;2023-02-11T07:37:04;26.23;;;13.35;;
40555;SDS011;26250;45.422;11.100;2023-02-11T07:39:31;16.38;;;13.18;;
40555;SDS011;26250;45.422;11.100;2023-02-11T07:41:58;30.95;;;16.35;;
40555;SDS011;26250;45.422;11.100;2023-02-11T07:44:26;39.13;;;15.50;;
40555;SDS011;26250;45.422;11.100;2023-02-11T07:46:53;45.30;;;25.42;;
40555;SDS011;26250;45.422;11.100;2023-02-11T07:49:20;27.42;;;16.02;;
40555;SDS011;26250;45.422;11.100;2023-02-11T07:51:47;26.60;;;15.98;;
40555;SDS011;26250;45.422;11.100;2023-02-11T07:54:16;19.25;;;15.95;;
40555;SDS011;26250;45.422;11.100;2023-02-11T07:56:43;29.00;;;16.38;;
40555;SDS011;26250;45.422;11.100;2023-02-11T07:59:10;35.22;;;17.75;;
40555;SDS011;26250;45.422;11.100;2023-02-11T08:01:37;20.98;;;16.88;;
40555;SDS011;26250;45.422;11.100;2023-02-11T08:04:05;32.85;;;17.63;;
40555;SDS011;26250;45.422;11.100;2023-02-11T08:06:32;25.65;;;16.70;;
40555;SDS011;26250;45.422;11.100;2023-02-11T08:09:04;23.65;;;17.48;;
40555;SDS011;26250;45.422;11.100;2023-02-11T08:11:32;41.28;;;19.00;;
40555;SDS011;26250;45.422;11.100;2023-02-11T08:13:59;39.75;;;16.77;;
40555;SDS011;26250;45.422;11.100;2023-02-11T08:16:30;33.22;;;16.50;;
40555;SDS011;26250;45.422;11.100;2023-02-11T08:18:59;54.50;;;20.05;;
40555;SDS011;26250;45.422;11.100;2023-02-11T08:21:28;29.98;;;19.30;;
40555;SDS011;26250;45.422;11.100;2023-02-11T08:23:55;43.42;;;18.67;;
40555;SDS011;26250;45.422;11.100;2023-02-11T08:26:23;32.40;;;18.25;;
40555;SDS011;26250;45.422;11.100;2023-02-11T08:28:54;45.65;;;20.77;;
40555;SDS011;26250;45.422;11.100;2023-02-11T08:31:23;38.88;;;20.25;;
40555;SDS011;26250;45.422;11.100;2023-02-11T08:33:52;53.88;;;23.55;;
40555;SDS011;26250;45.422;11.100;2023-02-11T08:36:22;40.58;;;27.95;;
40555;SDS011;26250;45.422;11.100;2023-02-11T08:38:52;55.70;;;31.85;;
40555;SDS011;26250;45.422;11.100;2023-02-11T08:41:37;71.28;;;32.15;;
40555;SDS011;26250;45.422;11.100;2023-02-11T08:44:04;54.08;;;32.47;;
40555;SDS011;26250;45.422;11.100;2023-02-11T08:46:31;89.30;;;35.33;;
40555;SDS011;26250;45.422;11.100;2023-02-11T08:48:58;64.65;;;34.15;;
40555;SDS011;26250;45.422;11.100;2023-02-11T08:51:26;46.25;;;30.92;;
40555;SDS011;26250;45.422;11.100;2023-02-11T08:53:55;62.50;;;33.17;;
40555;SDS011;26250;45.422;11.100;2023-02-11T08:56:23;42.42;;;29.38;;
40555;SDS011;26250;45.422;11.100;2023-02-11T08:58:50;61.63;;;29.55;;
40555;SDS011;26250;45.422;11.100;2023-02-11T09:01:19;38.08;;;26.15;;
40555;SDS011;26250;45.422;11.100;2023-02-11T09:03:48;38.63;;;27.42;;
40555;SDS011;26250;45.422;11.100;2023-02-11T09:06:16;54.55;;;25.77;;
40555;SDS011;26250;45.422;11.100;2023-02-11T09:08:45;50.88;;;26.92;;
40555;SDS011;26250;45.422;11.100;2023-02-11T09:11:15;47.22;;;28.48;;
40555;SDS011;26250;45.422;11.100;2023-02-11T09:13:43;53.13;;;29.63;;
40555;SDS011;26250;45.422;11.100;2023-02-11T09:16:18;53.67;;;26.27;;
40555;SDS011;26250;45.422;11.100;2023-02-11T09:18:47;48.58;;;27.63;;
40555;SDS011;26250;45.422;11.100;2023-02-11T09:21:15;34.25;;;25.55;;
40555;SDS011;26250;45.422;11.100;2023-02-11T09:23:43;53.05;;;29.17;;
40555;SDS011;26250;45.422;11.100;2023-02-11T09:28:47;50.00;;;30.27;;
40555;SDS011;26250;45.422;11.100;2023-02-11T09:31:16;46.40;;;31.17;;
40555;SDS011;26250;45.422;11.100;2023-02-11T09:33:46;43.38;;;29.75;;
40555;SDS011;26250;45.422;11.100;2023-02-11T09:36:17;40.40;;;30.33;;
40555;SDS011;26250;45.422;11.100;2023-02-11T09:38:45;38.03;;;29.80;;
40555;SDS011;26250;45.422;11.100;2023-02-11T09:43:55;46.03;;;31.17;;
40555;SDS011;26250;45.422;11.100;2023-02-11T09:46:24;50.35;;;34.03;;
40555;SDS011;26250;45.422;11.100;2023-02-11T09:48:53;48.38;;;35.45;;
40555;SDS011;26250;45.422;11.100;2023-02-11T09:51:28;50.05;;;36.65;;
40555;SDS011;26250;45.422;11.100;2023-02-11T09:54:34;58.67;;;38.60;;
40555;SDS011;26250;45.422;11.100;2023-02-11T09:57:02;54.15;;;35.90;;
40555;SDS011;26250;45.422;11.100;2023-02-11T09:59:51;62.42;;;38.92;;
40555;SDS011;26250;45.422;11.100;2023-02-11T10:12:55;62.15;;;39.28;;
40555;SDS011;26250;45.422;11.100;2023-02-11T10:19:02;43.45;;;34.47;;
40555;SDS011;26250;45.422;11.100;2023-02-11T10:24:36;45.15;;;33.03;;
40555;SDS011;26250;45.422;11.100;2023-02-11T10:27:17;48.53;;;33.53;;
40555;SDS011;26250;45.422;11.100;2023-02-11T10:29:56;43.28;;;32.00;;
40555;SDS011;26250;45.422;11.100;2023-02-11T10:32:40;46.95;;;33.22;;
40555;SDS011;26250;45.422;11.100;2023-02-11T10:35:22;50.90;;;33.60;;
40555;SDS011;26250;45.422;11.100;2023-02-11T10:37:49;49.95;;;33.40;;
40555;SDS011;26250;45.422;11.100;2023-02-11T10:40:18;48.33;;;32.25;;
40555;SDS011;26250;45.422;11.100;2023-02-11T10:42:48;38.40;;;29.55;;
40555;SDS011;26250;45.422;11.100;2023-02-11T10:45:31;47.78;;;32.25;;
40555;SDS011;26250;45.422;11.100;2023-02-11T10:47:59;42.63;;;29.60;;
40555;SDS011;26250;45.422;11.100;2023-02-11T10:50:29;43.85;;;32.50;;
40555;SDS011;26250;45.422;11.100;2023-02-11T10:55:51;44.72;;;30.42;;
40555;SDS011;26250;45.422;11.100;2023-02-11T11:01:08;36.70;;;32.30;;
40555;SDS011;26250;45.422;11.100;2023-02-11T11:03:50;53.28;;;33.58;;
40555;SDS011;26250;45.422;11.100;2023-02-11T11:06:28;52.47;;;33.47;;
40555;SDS011;26250;45.422;11.100;2023-02-11T11:08:57;46.13;;;33.03;;
40555;SDS011;26250;45.422;11.100;2023-02-11T11:11:24;37.67;;;29.67;;
40555;SDS011;26250;45.422;11.100;2023-02-11T11:23:59;41.95;;;31.40;;
40555;SDS011;26250;45.422;11.100;2023-02-11T11:26:41;43.15;;;30.15;;
40555;SDS011;26250;45.422;11.100;2023-02-11T11:29:52;47.38;;;29.00;;
40555;SDS011;26250;45.422;11.100;2023-02-11T11:32:18;42.95;;;31.33;;
40555;SDS011;26250;45.422;11.100;2023-02-11T11:34:50;44.33;;;31.77;;
40555;SDS011;26250;45.422;11.100;2023-02-11T11:40:07;42.22;;;30.13;;
40555;SDS011;26250;45.422;11.100;2023-02-11T11:42:35;31.90;;;26.98;;
40555;SDS011;26250;45.422;11.100;2023-02-11T11:47:57;35.85;;;30.15;;
40555;SDS011;26250;45.422;11.100;2023-02-11T11:56:03;52.72;;;32.70;;
40555;SDS011;26250;45.422;11.100;2023-02-11T11:58:34;45.13;;;28.73;;
40555;SDS011;26250;45.422;11.100;2023-02-11T12:14:18;49.25;;;30.70;;
40555;SDS011;26250;45.422;11.100;2023-02-11T12:25:29;47.88;;;30.85;;
40555;SDS011;26250;45.422;11.100;2023-02-11T12:36:48;46.60;;;32.50;;
40555;SDS011;26250;45.422;11.100;2023-02-11T12:39:38;58.40;;;32.83;;
40555;SDS011;26250;45.422;11.100;2023-02-11T12:42:18;41.53;;;29.05;;
40555;SDS011;26250;45.422;11.100;2023-02-11T12:55:58;36.38;;;29.60;;
40555;SDS011;26250;45.422;11.100;2023-02-11T12:58:31;36.80;;;28.50;;
40555;SDS011;26250;45.422;11.100;2023-02-11T13:01:25;45.22;;;29.00;;
40555;SDS011;26250;45.422;11.100;2023-02-11T13:04:19;46.05;;;28.98;;
40555;SDS011;26250;45.422;11.100;2023-02-11T13:07:08;40.20;;;28.45;;
40555;SDS011;26250;45.422;11.100;2023-02-11T13:09:45;38.95;;;30.33;;
40555;SDS011;26250;45.422;11.100;2023-02-11T13:12:18;39.83;;;31.83;;
40555;SDS011;26250;45.422;11.100;2023-02-11T13:15:05;52.97;;;31.75;;
40555;SDS011;26250;45.422;11.100;2023-02-11T13:17:36;35.38;;;30.40;;
40555;SDS011;26250;45.422;11.100;2023-02-11T13:23:06;63.13;;;30.88;;
40555;SDS011;26250;45.422;11.100;2023-02-11T13:25:53;39.05;;;29.60;;
40555;SDS011;26250;45.422;11.100;2023-02-11T13:31:27;47.78;;;29.92;;
40555;SDS011;26250;45.422;11.100;2023-02-11T13:33:55;49.67;;;32.25;;
40555;SDS011;26250;45.422;11.100;2023-02-11T13:36:28;40.45;;;32.70;;
40555;SDS011;26250;45.422;11.100;2023-02-11T13:38:59;44.25;;;31.27;;
40555;SDS011;26250;45.422;11.100;2023-02-11T13:41:44;55.28;;;31.65;;
40555;SDS011;26250;45.422;11.100;2023-02-11T13:44:19;40.47;;;30.25;;
40555;SDS011;26250;45.422;11.100;2023-02-11T13:46:53;40.28;;;29.25;;
40555;SDS011;26250;45.422;11.100;2023-02-11T13:52:03;68.10;;;30.67;;
40555;SDS011;26250;45.422;11.100;2023-02-11T13:54:33;45.25;;;31.67;;
40555;SDS011;26250;45.422;11.100;2023-02-11T13:59:46;48.07;;;31.57;;
40555;SDS011;26250;45.422;11.100;2023-02-11T14:02:22;41.92;;;30.70;;
40555;SDS011;26250;45.422;11.100;2023-02-11T14:05:21;39.90;;;31.33;;
40555;SDS011;26250;45.422;11.100;2023-02-11T14:16:16;47.70;;;35.20;;
40555;SDS011;26250;45.422;11.100;2023-02-11T14:19:03;46.00;;;33.80;;
40555;SDS011;26250;45.422;11.100;2023-02-11T14:21:35;43.05;;;32.60;;
40555;SDS011;26250;45.422;11.100;2023-02-11T14:29:34;41.63;;;28.70;;
40555;SDS011;26250;45.422;11.100;2023-02-11T14:32:28;34.67;;;29.20;;
40555;SDS011;26250;45.422;11.100;2023-02-11T14:40:34;49.35;;;27.85;;
40555;SDS011;26250;45.422;11.100;2023-02-11T14:43:10;42.28;;;26.60;;
40555;SDS011;26250;45.422;11.100;2023-02-11T14:45:40;100.82;;;31.33;;
40555;SDS011;26250;45.422;11.100;2023-02-11T14:48:17;38.33;;;28.63;;
40555;SDS011;26250;45.422;11.100;2023-02-11T14:50:50;48.95;;;28.25;;
40555;SDS011;26250;45.422;11.100;2023-02-11T14:53:20;39.63;;;29.42;;
40555;SDS011;26250;45.422;11.100;2023-02-11T14:55:49;47.05;;;26.27;;
40555;SDS011;26250;45.422;11.100;2023-02-11T14:58:25;30.20;;;24.17;;
40555;SDS011;26250;45.422;11.100;2023-02-11T15:03:40;37.22;;;25.17;;
40555;SDS011;26250;45.422;11.100;2023-02-11T15:06:29;33.28;;;26.58;;
40555;SDS011;26250;45.422;11.100;2023-02-11T15:09:05;34.40;;;27.83;;
40555;SDS011;26250;45.422;11.100;2023-02-11T15:11:44;51.22;;;26.95;;
40555;SDS011;26250;45.422;11.100;2023-02-11T15:14:31;45.03;;;30.13;;
40555;SDS011;26250;45.422;11.100;2023-02-11T15:17:02;40.67;;;31.05;;
40555;SDS011;26250;45.422;11.100;2023-02-11T15:19:33;43.38;;;33.50;;
40555;SDS011;26250;45.422;11.100;2023-02-11T15:22:04;39.38;;;33.15;;
40555;SDS011;26250;45.422;11.100;2023-02-11T15:25:00;42.53;;;30.92;;
40555;SDS011;26250;45.422;11.100;2023-02-11T15:27:39;48.75;;;34.45;;
40555;SDS011;26250;45.422;11.100;2023-02-11T15:32:50;44.20;;;33.45;;
40555;SDS011;26250;45.422;11.100;2023-02-11T15:35:23;43.70;;;35.05;;
40555;SDS011;26250;45.422;11.100;2023-02-11T15:37:54;40.28;;;33.22;;
40555;SDS011;26250;45.422;11.100;2023-02-11T15:40:26;41.60;;;33.50;;
40555;SDS011;26250;45.422;11.100;2023-02-11T15:50:36;47.25;;;35.90;;
40555;SDS011;26250;45.422;11.100;2023-02-11T15:55:48;48.00;;;36.10;;
40555;SDS011;26250;45.422;11.100;2023-02-11T15:58:17;61.33;;;36.95;;
40555;SDS011;26250;45.422;11.100;2023-02-11T16:00:46;46.97;;;38.47;;
40555;SDS011;26250;45.422;11.100;2023-02-11T16:03:22;72.22;;;47.63;;
40555;SDS011;26250;45.422;11.100;2023-02-11T16:05:50;54.90;;;37.33;;
40555;SDS011;26250;45.422;11.100;2023-02-11T16:08:19;54.58;;;36.00;;
40555;SDS011;26250;45.422;11.100;2023-02-11T16:10:54;45.75;;;37.88;;
40555;SDS011;26250;45.422;11.100;2023-02-11T16:13:24;50.58;;;37.08;;
40555;SDS011;26250;45.422;11.100;2023-02-11T16:15:56;46.95;;;36.33;;
40555;SDS011;26250;45.422;11.100;2023-02-11T16:21:05;51.85;;;34.53;;
40555;SDS011;26250;45.422;11.100;2023-02-11T16:23:39;49.97;;;35.00;;
40555;SDS011;26250;45.422;11.100;2023-02-11T16:26:29;54.58;;;35.83;;
40555;SDS011;26250;45.422;11.100;2023-02-11T16:29:03;60.35;;;35.72;;
40555;SDS011;26250;45.422;11.100;2023-02-11T16:31:36;47.00;;;34.72;;
40555;SDS011;26250;45.422;11.100;2023-02-11T16:34:13;49.25;;;36.88;;
40555;SDS011;26250;45.422;11.100;2023-02-11T16:36:45;42.40;;;36.00;;
40555;SDS011;26250;45.422;11.100;2023-02-11T16:39:13;48.25;;;37.10;;
40555;SDS011;26250;45.422;11.100;2023-02-11T16:41:44;70.03;;;36.22;;
40555;SDS011;26250;45.422;11.100;2023-02-11T16:44:11;54.17;;;37.60;;
40555;SDS011;26250;45.422;11.100;2023-02-11T16:46:38;55.33;;;38.80;;
40555;SDS011;26250;45.422;11.100;2023-02-11T16:49:09;59.28;;;37.58;;
40555;SDS011;26250;45.422;11.100;2023-02-11T16:51:46;63.55;;;39.72;;
40555;SDS011;26250;45.422;11.100;2023-02-11T16:54:20;50.75;;;38.22;;
40555;SDS011;26250;45.422;11.100;2023-02-11T16:56:48;56.40;;;38.65;;
40555;SDS011;26250;45.422;11.100;2023-02-11T16:59:14;61.97;;;38.80;;
40555;SDS011;26250;45.422;11.100;2023-02-11T17:01:41;79.50;;;37.88;;
40555;SDS011;26250;45.422;11.100;2023-02-11T17:04:11;50.45;;;36.75;;
40555;SDS011;26250;45.422;11.100;2023-02-11T17:06:45;52.55;;;36.67;;
40555;SDS011;26250;45.422;11.100;2023-02-11T17:09:17;42.80;;;35.65;;
40555;SDS011;26250;45.422;11.100;2023-02-11T17:50:35;50.47;;;33.15;;
40555;SDS011;26250;45.422;11.100;2023-02-11T17:53:02;53.88;;;33.25;;
40555;SDS011;26250;45.422;11.100;2023-02-11T17:55:31;70.60;;;36.17;;
40555;SDS011;26250;45.422;11.100;2023-02-11T17:57:59;63.80;;;37.95;;
40555;SDS011;26250;45.422;11.100;2023-02-11T18:00:26;46.03;;;32.88;;
40555;SDS011;26250;45.422;11.100;2023-02-11T18:02:56;54.25;;;34.00;;
40555;SDS011;26250;45.422;11.100;2023-02-11T18:05:32;70.65;;;37.20;;
40555;SDS011;26250;45.422;11.100;2023-02-11T18:08:02;55.65;;;37.28;;